Time;durP1;ratioP1;P1;durP2;ratioP2;P2;SDS_P1;SDS_P2;PMS_P1;PMS_P2;Temp;Humidity;BMP_temperature;BMP_pressure;BME280_temperature;BME280_humidity;BME280_pressure;Samples;Min_cycle;Max_cycle;Signal;HPM_P1;HPM_P2
2024/02/20 00:01:56;;;;;;;6.10;3.65;;;;;;;;;;5039084;28;20064;-84
2024/02/20 00:04:23;;;;;;;6.97;3.20;;;;;;;;;;5039607;28;20056;-83
2024/02/20 00:06:50;;;;;;;8.00;3.30;;;;;;;;;;5037992;28;20041;-83
2024/02/20 00:09:17;;;;;;;11.60;3.92;;;;;;;;;;5018526;28;20060;-82
2024/02/20 00:11:44;;;;;;;6.13;3.58;;;;;;;;;;5043173;28;20052;-84
2024/02/20 00:14:11;;;;;;;5.05;3.70;;;;;;;;;;5027447;28;20049;-82
2024/02/20 00:16:38;;;;;;;5.57;3.47;;;;;;;;;;5026467;28;20056;-85
2024/02/20 00:19:05;;;;;;;8.57;3.92;;;;;;;;;;5058012;28;20112;-85
2024/02/20 00:21:31;;;;;;;7.80;3.88;;;;;;;;;;5045133;28;20289;-84
2024/02/20 00:23:58;;;;;;;7.57;3.70;;;;;;;;;;5061339;28;20052;-81
2024/02/20 00:26:25;;;;;;;6.97;3.40;;;;;;;;;;5045081;28;20204;-83
2024/02/20 00:28:52;;;;;;;6.80;4.07;;;;;;;;;;5052442;28;20045;-82
2024/02/20 00:31:18;;;;;;;6.30;3.53;;;;;;;;;;5047609;28;20110;-82
2024/02/20 00:33:45;;;;;;;10.30;4.70;;;;;;;;;;5056737;28;20068;-83
2024/02/20 00:36:12;;;;;;;8.35;4.00;;;;;;;;;;5044933;28;20099;-85
2024/02/20 00:38:39;;;;;;;6.70;4.30;;;;;;;;;;5045894;28;20433;-85
2024/02/20 00:41:05;;;;;;;5.13;3.88;;;;;;;;;;5029993;28;20466;-85
2024/02/20 00:43:32;;;;;;;6.40;3.65;;;;;;;;;;5044853;28;20079;-84
2024/02/20 00:46:01;;;;;;;6.78;3.83;;;;;;;;;;5045227;28;20053;-84
2024/02/20 00:48:28;;;;;;;8.93;3.40;;;;;;;;;;5029530;28;20077;-84
2024/02/20 00:50:54;;;;;;;10.15;4.32;;;;;;;;;;5037662;28;20056;-84
2024/02/20 00:53:21;;;;;;;6.75;4.07;;;;;;;;;;5045804;28;20052;-84
2024/02/20 00:55:48;;;;;;;6.80;3.92;;;;;;;;;;5029702;28;20049;-84
2024/02/20 00:58:14;;;;;;;6.95;3.78;;;;;;;;;;5062411;28;20053;-84
2024/02/20 01:00:41;;;;;;;6.72;3.63;;;;;;;;;;5044675;28;20044;-80
2024/02/20 01:03:08;;;;;;;4.93;3.47;;;;;;;;;;5044159;28;20144;-82
2024/02/20 01:05:35;;;;;;;7.72;3.60;;;;;;;;;;5044636;28;20041;-82
2024/02/20 01:08:02;;;;;;;5.63;2.92;;;;;;;;;;5035507;28;20053;-82
2024/02/20 01:10:28;;;;;;;4.95;3.60;;;;;;;;;;5061393;28;20216;-82
2024/02/20 01:12:55;;;;;;;8.45;3.55;;;;;;;;;;5044585;28;20045;-82
2024/02/20 01:15:22;;;;;;;5.50;3.30;;;;;;;;;;5035620;28;20049;-81
2024/02/20 01:17:48;;;;;;;5.43;2.97;;;;;;;;;;5035595;28;20052;-81
2024/02/20 01:20:15;;;;;;;4.63;2.60;;;;;;;;;;5036515;28;20053;-80
2024/02/20 01:22:42;;;;;;;4.90;2.65;;;;;;;;;;5030791;28;20530;-82
2024/02/20 01:25:09;;;;;;;7.53;3.00;;;;;;;;;;5035474;28;20049;-82
2024/02/20 01:27:36;;;;;;;5.85;2.83;;;;;;;;;;5020769;28;20091;-82
2024/02/20 01:30:03;;;;;;;5.47;3.28;;;;;;;;;;5029727;28;20495;-83
2024/02/20 01:32:29;;;;;;;5.07;3.05;;;;;;;;;;5033050;28;20045;-83
2024/02/20 01:34:56;;;;;;;4.70;3.00;;;;;;;;;;5051372;28;20127;-82
2024/02/20 01:37:23;;;;;;;8.02;2.92;;;;;;;;;;5037986;28;20091;-82
2024/02/20 01:39:50;;;;;;;4.47;3.17;;;;;;;;;;5032371;28;20124;-82
2024/02/20 01:42:16;;;;;;;5.63;3.53;;;;;;;;;;5038598;28;20045;-82
2024/02/20 01:44:43;;;;;;;7.55;4.03;;;;;;;;;;5044675;28;20098;-80
2024/02/20 01:47:10;;;;;;;8.43;3.10;;;;;;;;;;5046421;28;20144;-80
2024/02/20 01:49:36;;;;;;;8.20;3.50;;;;;;;;;;5060423;28;20048;-81
2024/02/20 01:52:06;;;;;;;5.85;3.28;;;;;;;;;;5056630;28;20048;-80
2024/02/20 01:54:33;;;;;;;10.00;3.45;;;;;;;;;;5017213;28;20075;-81
2024/02/20 01:57:00;;;;;;;4.80;3.25;;;;;;;;;;5031306;28;20049;-82
2024/02/20 01:59:26;;;;;;;7.75;3.25;;;;;;;;;;5037164;28;20064;-81
2024/02/20 02:01:53;;;;;;;6.10;3.63;;;;;;;;;;5036140;28;20056;-81
2024/02/20 02:04:20;;;;;;;6.88;3.67;;;;;;;;;;5036383;28;20063;-80
2024/02/20 02:06:47;;;;;;;6.43;3.50;;;;;;;;;;5034938;28;20041;-79
2024/02/20 02:09:14;;;;;;;8.88;3.67;;;;;;;;;;5058578;28;20049;-78
2024/02/20 02:11:41;;;;;;;6.78;3.80;;;;;;;;;;5042786;28;20120;-79
2024/02/20 02:14:08;;;;;;;7.03;3.97;;;;;;;;;;5051687;28;20089;-80
2024/02/20 02:16:34;;;;;;;9.55;4.53;;;;;;;;;;5041225;28;20549;-79
2024/02/20 02:19:02;;;;;;;6.60;4.15;;;;;;;;;;5019807;28;20057;-80
2024/02/20 02:21:30;;;;;;;7.38;3.88;;;;;;;;;;5023919;28;20140;-80
2024/02/20 02:23:56;;;;;;;8.05;4.25;;;;;;;;;;5041468;28;20053;-80
2024/02/20 02:26:23;;;;;;;6.10;3.90;;;;;;;;;;5056790;28;20124;-80
2024/02/20 02:28:50;;;;;;;6.43;3.85;;;;;;;;;;5056206;28;20072;-81
2024/02/20 02:31:16;;;;;;;7.93;3.83;;;;;;;;;;5036660;28;20076;-80
2024/02/20 02:33:44;;;;;;;8.43;3.85;;;;;;;;;;5035305;28;20087;-81
2024/02/20 02:36:12;;;;;;;6.68;3.42;;;;;;;;;;5035644;28;20064;-80
2024/02/20 02:38:39;;;;;;;10.32;3.63;;;;;;;;;;5035736;28;20072;-80
2024/02/20 02:41:05;;;;;;;6.40;3.05;;;;;;;;;;5035951;28;20099;-80
2024/02/20 02:43:32;;;;;;;4.97;2.92;;;;;;;;;;5035850;28;20533;-80
2024/02/20 02:45:59;;;;;;;4.65;2.83;;;;;;;;;;5019746;28;20490;-80
2024/02/20 02:48:25;;;;;;;6.00;2.55;;;;;;;;;;5035785;28;20056;-80
2024/02/20 02:50:52;;;;;;;7.32;3.03;;;;;;;;;;5053228;28;20136;-79
2024/02/20 02:53:21;;;;;;;6.72;2.55;;;;;;;;;;5019782;28;20060;-81
2024/02/20 02:55:48;;;;;;;7.82;2.75;;;;;;;;;;5020499;28;20045;-79
2024/02/20 02:58:15;;;;;;;6.30;3.05;;;;;;;;;;5053578;28;20673;-80
2024/02/20 03:00:42;;;;;;;10.38;2.83;;;;;;;;;;5037654;28;20059;-79
2024/02/20 03:03:08;;;;;;;5.60;2.45;;;;;;;;;;5055832;28;20053;-79
2024/02/20 03:05:37;;;;;;;4.20;2.20;;;;;;;;;;5037466;28;20060;-79
2024/02/20 03:08:05;;;;;;;8.65;2.38;;;;;;;;;;5037066;28;20498;-79
2024/02/20 03:10:31;;;;;;;5.68;2.45;;;;;;;;;;5037506;28;20052;-79
2024/02/20 03:12:58;;;;;;;6.65;2.00;;;;;;;;;;5038715;28;20088;-79
2024/02/20 03:15:25;;;;;;;8.38;2.25;;;;;;;;;;5039321;28;20045;-80
2024/02/20 03:17:52;;;;;;;7.28;2.38;;;;;;;;;;5037997;28;20052;-80
2024/02/20 03:20:19;;;;;;;9.40;2.22;;;;;;;;;;5038233;28;20061;-80
2024/02/20 03:22:46;;;;;;;5.68;1.88;;;;;;;;;;5038869;28;20561;-79
2024/02/20 03:25:15;;;;;;;6.90;2.70;;;;;;;;;;5037778;28;20574;-79
2024/02/20 03:27:43;;;;;;;6.10;2.47;;;;;;;;;;5037792;28;20083;-80
2024/02/20 03:30:10;;;;;;;6.78;2.22;;;;;;;;;;5022197;28;20049;-80
2024/02/20 03:32:37;;;;;;;6.22;2.58;;;;;;;;;;5037355;28;20057;-80
2024/02/20 03:35:10;;;;;;;13.82;2.58;;;;;;;;;;5038420;28;20041;-80
2024/02/20 03:37:40;;;;;;;5.57;2.42;;;;;;;;;;5039824;28;20403;-79
2024/02/20 03:40:07;;;;;;;7.05;2.17;;;;;;;;;;5040206;28;20057;-80
2024/02/20 03:42:34;;;;;;;5.82;2.13;;;;;;;;;;5038630;28;20087;-80
2024/02/20 03:45:01;;;;;;;6.22;2.00;;;;;;;;;;5021631;28;20068;-80
2024/02/20 03:47:27;;;;;;;7.53;2.15;;;;;;;;;;5059309;28;20052;-80
2024/02/20 03:49:54;;;;;;;10.48;2.58;;;;;;;;;;5042906;28;20497;-80
2024/02/20 03:52:21;;;;;;;7.22;2.25;;;;;;;;;;5040870;28;20044;-80
2024/02/20 03:54:48;;;;;;;7.53;2.13;;;;;;;;;;5042453;28;20048;-79
2024/02/20 03:57:15;;;;;;;5.75;2.03;;;;;;;;;;5025824;28;20040;-80
2024/02/20 03:59:42;;;;;;;5.47;1.95;;;;;;;;;;5042060;28;20053;-79
2024/02/20 04:02:10;;;;;;;4.55;2.67;;;;;;;;;;5044823;28;20045;-79
2024/02/20 04:04:36;;;;;;;5.05;1.85;;;;;;;;;;5044960;28;20560;-79
2024/02/20 04:07:03;;;;;;;6.18;2.10;;;;;;;;;;5042680;28;20096;-79
2024/02/20 04:09:33;;;;;;;9.93;2.35;;;;;;;;;;5043632;28;20137;-82
2024/02/20 04:11:59;;;;;;;6.82;2.03;;;;;;;;;;5025177;28;20054;-82
2024/02/20 04:14:26;;;;;;;8.70;2.30;;;;;;;;;;5061670;28;20059;-82
2024/02/20 04:16:53;;;;;;;6.82;1.88;;;;;;;;;;5044490;28;20481;-81
2024/02/20 04:19:19;;;;;;;6.43;2.38;;;;;;;;;;5044344;28;20061;-80
2024/02/20 04:21:46;;;;;;;3.38;1.98;;;;;;;;;;5039651;28;20075;-80
2024/02/20 04:24:13;;;;;;;4.60;1.95;;;;;;;;;;5042492;28;20049;-81
2024/02/20 04:26:39;;;;;;;6.38;3.08;;;;;;;;;;5058860;28;20053;-81
2024/02/20 04:29:06;;;;;;;7.15;1.98;;;;;;;;;;5057561;28;20056;-81
2024/02/20 04:31:33;;;;;;;4.85;1.88;;;;;;;;;;5041751;28;20067;-80
2024/02/20 04:34:00;;;;;;;9.38;1.77;;;;;;;;;;5045722;28;20045;-80
2024/02/20 04:36:27;;;;;;;6.20;2.30;;;;;;;;;;5028852;28;20108;-81
2024/02/20 04:38:57;;;;;;;6.85;2.10;;;;;;;;;;5045407;28;20053;-81
2024/02/20 04:41:24;;;;;;;4.57;1.83;;;;;;;;;;5041811;28;20414;-83
2024/02/20 04:43:51;;;;;;;8.50;2.00;;;;;;;;;;5043587;28;20064;-83
2024/02/20 04:46:18;;;;;;;5.13;1.95;;;;;;;;;;5079263;28;20025;-79
2024/02/20 04:48:44;;;;;;;7.03;2.00;;;;;;;;;;5046938;28;20044;-80
2024/02/20 04:51:11;;;;;;;8.02;1.70;;;;;;;;;;5069206;28;20057;-81
2024/02/20 04:53:38;;;;;;;4.70;2.83;;;;;;;;;;5037376;28;20052;-82
2024/02/20 04:56:05;;;;;;;5.57;1.45;;;;;;;;;;5042805;28;20057;-80
2024/02/20 04:58:32;;;;;;;11.57;1.67;;;;;;;;;;5060877;28;20448;-80
2024/02/20 05:00:59;;;;;;;11.88;1.80;;;;;;;;;;5041390;28;20438;-79
2024/02/20 05:03:26;;;;;;;11.82;1.75;;;;;;;;;;5025025;28;20494;-83
2024/02/20 05:05:52;;;;;;;5.60;1.67;;;;;;;;;;5042008;28;20049;-81
2024/02/20 05:08:19;;;;;;;8.98;1.95;;;;;;;;;;5043799;28;20099;-80
2024/02/20 05:10:46;;;;;;;7.30;1.83;;;;;;;;;;5045941;28;20092;-80
2024/02/20 05:13:12;;;;;;;8.32;2.78;;;;;;;;;;5028571;28;20064;-80
2024/02/20 05:15:39;;;;;;;7.72;2.08;;;;;;;;;;5046431;28;20049;-80
2024/02/20 05:18:06;;;;;;;5.82;1.45;;;;;;;;;;5064677;28;20057;-80
2024/02/20 05:20:33;;;;;;;8.05;1.75;;;;;;;;;;5064697;28;20572;-80
2024/02/20 05:22:59;;;;;;;5.85;1.33;;;;;;;;;;5066338;28;20053;-80
2024/02/20 05:25:26;;;;;;;16.38;2.25;;;;;;;;;;5047966;28;20057;-80
2024/02/20 05:27:53;;;;;;;5.45;1.30;;;;;;;;;;5064615;28;20079;-81
2024/02/20 05:30:19;;;;;;;8.70;2.63;;;;;;;;;;5047509;28;20104;-81
2024/02/20 05:32:46;;;;;;;7.82;1.63;;;;;;;;;;5028881;28;20048;-81
2024/02/20 05:35:13;;;;;;;9.35;2.05;;;;;;;;;;5060851;28;20080;-81
2024/02/20 05:37:40;;;;;;;10.32;2.20;;;;;;;;;;5026953;28;20076;-80
2024/02/20 05:40:11;;;;;;;9.35;2.05;;;;;;;;;;5043737;28;20068;-80
2024/02/20 05:42:39;;;;;;;7.80;1.98;;;;;;;;;;5043424;28;20049;-80
2024/02/20 05:45:06;;;;;;;8.40;1.73;;;;;;;;;;5019484;28;20060;-80
2024/02/20 05:47:32;;;;;;;6.45;1.95;;;;;;;;;;5045279;28;20041;-80
2024/02/20 05:50:00;;;;;;;6.07;1.90;;;;;;;;;;5042238;28;20045;-80
2024/02/20 05:52:27;;;;;;;11.95;2.20;;;;;;;;;;5062972;28;20079;-80
2024/02/20 05:54:54;;;;;;;11.13;1.90;;;;;;;;;;5046109;28;20055;-81
2024/02/20 05:57:21;;;;;;;8.95;1.65;;;;;;;;;;5062804;28;20049;-80
2024/02/20 05:59:47;;;;;;;5.28;1.42;;;;;;;;;;5044442;28;20049;-79
2024/02/20 06:02:14;;;;;;;8.80;1.58;;;;;;;;;;5029139;28;20052;-81
2024/02/20 06:04:41;;;;;;;10.00;2.33;;;;;;;;;;5045221;28;20056;-80
2024/02/20 06:07:07;;;;;;;10.10;2.22;;;;;;;;;;5044749;28;20113;-81
2024/02/20 06:09:34;;;;;;;7.47;2.30;;;;;;;;;;5058046;28;20056;-82
2024/02/20 06:12:09;;;;;;;7.05;1.55;;;;;;;;;;5060244;28;20041;-80
2024/02/20 06:14:36;;;;;;;11.10;2.45;;;;;;;;;;5041339;28;20075;-82
2024/02/20 06:17:03;;;;;;;8.80;2.67;;;;;;;;;;5057671;28;20078;-81
2024/02/20 06:19:29;;;;;;;7.75;1.85;;;;;;;;;;5057726;28;20408;-81
2024/02/20 06:21:56;;;;;;;9.00;2.67;;;;;;;;;;5042851;28;20506;-81
2024/02/20 06:24:23;;;;;;;4.97;1.33;;;;;;;;;;5059958;28;20053;-79
2024/02/20 06:26:50;;;;;;;9.35;2.53;;;;;;;;;;5038494;28;20059;-78
2024/02/20 06:29:17;;;;;;;11.48;1.90;;;;;;;;;;5034489;28;20045;-79
2024/02/20 06:31:43;;;;;;;6.05;2.05;;;;;;;;;;5037099;28;20052;-79
2024/02/20 06:34:10;;;;;;;7.95;2.60;;;;;;;;;;5036808;28;20053;-80
2024/02/20 06:36:37;;;;;;;10.27;2.00;;;;;;;;;;5038092;28;20049;-80
2024/02/20 06:39:04;;;;;;;16.50;2.17;;;;;;;;;;5055226;28;20053;-80
2024/02/20 06:41:31;;;;;;;7.43;1.90;;;;;;;;;;5037965;28;20087;-82
2024/02/20 06:43:57;;;;;;;11.15;2.03;;;;;;;;;;5020233;28;20079;-78
2024/02/20 06:46:24;;;;;;;12.07;2.55;;;;;;;;;;5035313;28;20060;-76
2024/02/20 06:48:51;;;;;;;9.90;1.95;;;;;;;;;;5035979;28;20439;-79
2024/02/20 06:51:19;;;;;;;9.30;2.15;;;;;;;;;;5034068;28;20044;-76
2024/02/20 06:53:46;;;;;;;12.98;2.50;;;;;;;;;;5043064;28;20053;-76
2024/02/20 06:56:15;;;;;;;12.32;2.72;;;;;;;;;;5024050;28;20057;-77
2024/02/20 06:58:42;;;;;;;14.32;4.57;;;;;;;;;;5031463;28;20049;-76
2024/02/20 07:01:09;;;;;;;9.77;3.55;;;;;;;;;;5031745;28;20052;-77
2024/02/20 07:03:35;;;;;;;11.80;3.97;;;;;;;;;;5049337;28;20052;-77
2024/02/20 07:06:02;;;;;;;17.10;2.83;;;;;;;;;;5031647;28;20056;-76
2024/02/20 07:08:30;;;;;;;9.27;2.33;;;;;;;;;;5015128;28;20080;-76
2024/02/20 07:10:58;;;;;;;7.40;1.90;;;;;;;;;;5029599;28;20099;-77
2024/02/20 07:13:25;;;;;;;9.38;2.97;;;;;;;;;;5031957;28;20049;-76
2024/02/20 07:15:51;;;;;;;9.82;3.35;;;;;;;;;;5015565;28;20408;-76
2024/02/20 07:18:18;;;;;;;9.95;2.25;;;;;;;;;;5031440;28;20140;-76
2024/02/20 07:20:45;;;;;;;6.18;1.90;;;;;;;;;;5015045;28;20502;-76
2024/02/20 07:23:12;;;;;;;6.97;2.60;;;;;;;;;;5051449;28;20467;-76
2024/02/20 07:25:38;;;;;;;10.38;2.40;;;;;;;;;;5035789;28;20137;-77
2024/02/20 07:28:06;;;;;;;7.13;1.52;;;;;;;;;;5029076;28;20041;-76
2024/02/20 07:30:33;;;;;;;6.60;2.22;;;;;;;;;;5048655;28;20032;-76
2024/02/20 07:32:59;;;;;;;9.73;1.90;;;;;;;;;;5041792;28;20045;-76
2024/02/20 07:35:26;;;;;;;11.45;3.03;;;;;;;;;;5072866;28;20053;-76
2024/02/20 07:37:54;;;;;;;8.85;2.33;;;;;;;;;;5036075;28;20049;-77
2024/02/20 07:40:21;;;;;;;6.30;1.95;;;;;;;;;;5033118;28;20061;-78
2024/02/20 07:42:49;;;;;;;9.27;1.75;;;;;;;;;;5019710;28;20125;-77
2024/02/20 07:45:16;;;;;;;11.02;1.95;;;;;;;;;;5032242;28;20126;-77
2024/02/20 07:47:42;;;;;;;7.10;1.50;;;;;;;;;;5034865;28;20084;-78
2024/02/20 07:50:10;;;;;;;13.60;1.73;;;;;;;;;;5055869;28;20095;-87
2024/02/20 07:52:36;;;;;;;8.20;2.42;;;;;;;;;;5035680;28;20052;-86
2024/02/20 07:55:04;;;;;;;10.48;2.42;;;;;;;;;;5020724;28;20422;-86
2024/02/20 07:57:31;;;;;;;10.07;2.25;;;;;;;;;;5039807;28;20363;-86
2024/02/20 07:59:58;;;;;;;14.13;2.25;;;;;;;;;;5057268;28;20053;-83
2024/02/20 08:02:25;;;;;;;6.68;1.90;;;;;;;;;;5038811;28;20053;-83
2024/02/20 08:04:52;;;;;;;11.05;2.10;;;;;;;;;;5041843;28;20053;-82
2024/02/20 08:07:19;;;;;;;13.02;2.65;;;;;;;;;;5021456;28;20053;-76
2024/02/20 08:09:47;;;;;;;12.88;2.42;;;;;;;;;;5041229;28;20045;-77
2024/02/20 08:12:14;;;;;;;11.20;2.22;;;;;;;;;;5030136;28;20049;-77
2024/02/20 08:14:42;;;;;;;9.65;2.78;;;;;;;;;;5012025;28;20111;-78
2024/02/20 08:17:13;;;;;;;15.50;3.53;;;;;;;;;;5018208;28;20045;-76
2024/02/20 08:19:41;;;;;;;13.15;2.60;;;;;;;;;;5030711;28;20470;-77
2024/02/20 08:22:08;;;;;;;10.23;2.92;;;;;;;;;;5031148;28;20055;-77
2024/02/20 08:24:36;;;;;;;11.10;2.83;;;;;;;;;;5025335;28;20056;-77
2024/02/20 08:27:03;;;;;;;10.68;2.17;;;;;;;;;;5048466;28;20045;-77
2024/02/20 08:29:30;;;;;;;16.20;2.67;;;;;;;;;;5030667;28;20563;-78
2024/02/20 08:31:56;;;;;;;9.20;2.28;;;;;;;;;;5035955;28;20052;-78
2024/02/20 08:34:23;;;;;;;11.63;3.20;;;;;;;;;;5065806;28;20048;-80
2024/02/20 08:36:50;;;;;;;8.48;2.08;;;;;;;;;;5047984;28;20048;-79
2024/02/20 08:39:17;;;;;;;8.35;2.53;;;;;;;;;;5065089;28;20052;-79
2024/02/20 08:41:43;;;;;;;5.63;2.25;;;;;;;;;;5033501;28;20057;-79
2024/02/20 08:44:10;;;;;;;8.18;2.20;;;;;;;;;;5028149;28;20115;-78
2024/02/20 08:46:37;;;;;;;14.70;2.55;;;;;;;;;;5052634;28;20063;-76
2024/02/20 08:49:03;;;;;;;12.43;2.42;;;;;;;;;;5047627;28;20400;-78
2024/02/20 08:51:30;;;;;;;11.05;2.38;;;;;;;;;;5021732;28;20804;-78
2024/02/20 08:53:57;;;;;;;13.00;2.90;;;;;;;;;;5029444;28;20411;-75
2024/02/20 08:56:24;;;;;;;6.55;2.00;;;;;;;;;;5051274;28;20041;-75
2024/02/20 08:58:53;;;;;;;7.85;2.70;;;;;;;;;;5032437;28;20130;-75
2024/02/20 09:01:24;;;;;;;9.23;2.58;;;;;;;;;;5033741;28;20049;-75
2024/02/20 09:03:52;;;;;;;11.63;3.08;;;;;;;;;;5034074;28;20510;-77
2024/02/20 09:06:18;;;;;;;9.43;2.45;;;;;;;;;;5045388;28;20517;-76
2024/02/20 09:08:45;;;;;;;9.65;3.13;;;;;;;;;;5029935;28;20060;-76
2024/02/20 09:11:13;;;;;;;9.68;2.65;;;;;;;;;;5031739;28;20041;-76
2024/02/20 09:13:40;;;;;;;9.80;2.15;;;;;;;;;;5033531;28;20053;-76
2024/02/20 09:16:07;;;;;;;10.32;2.63;;;;;;;;;;5032861;28;20677;-76
2024/02/20 09:18:34;;;;;;;13.02;2.65;;;;;;;;;;5015739;28;20135;-75
2024/02/20 09:21:02;;;;;;;11.02;2.75;;;;;;;;;;5034806;28;20128;-75
2024/02/20 09:23:31;;;;;;;14.68;3.20;;;;;;;;;;5017309;28;20095;-76
2024/02/20 09:25:58;;;;;;;11.50;2.28;;;;;;;;;;5033544;28;20048;-76
2024/02/20 09:28:24;;;;;;;8.73;2.30;;;;;;;;;;5049621;28;20049;-76
2024/02/20 09:30:51;;;;;;;12.20;2.28;;;;;;;;;;5030074;28;20084;-76
2024/02/20 09:33:18;;;;;;;13.77;3.65;;;;;;;;;;5033245;28;20049;-76
2024/02/20 09:35:45;;;;;;;10.85;2.80;;;;;;;;;;5033806;28;20079;-77
2024/02/20 09:38:13;;;;;;;7.13;2.10;;;;;;;;;;5050710;28;20102;-77
2024/02/20 09:40:39;;;;;;;5.97;2.00;;;;;;;;;;5012146;28;20056;-76
2024/02/20 09:43:06;;;;;;;11.38;3.03;;;;;;;;;;5015730;28;20087;-75
2024/02/20 09:45:33;;;;;;;10.35;2.85;;;;;;;;;;5050361;28;20057;-75
2024/02/20 09:48:01;;;;;;;15.18;2.47;;;;;;;;;;5028542;28;20495;-75
2024/02/20 09:50:28;;;;;;;7.65;2.22;;;;;;;;;;5032784;28;20049;-75
2024/02/20 09:52:54;;;;;;;17.08;2.38;;;;;;;;;;5016590;28;20053;-75
2024/02/20 09:55:23;;;;;;;29.50;6.00;;;;;;;;;;5027258;28;20053;-75
2024/02/20 09:57:50;;;;;;;13.40;2.38;;;;;;;;;;5029068;28;20053;-75
2024/02/20 10:00:18;;;;;;;10.27;2.30;;;;;;;;;;5032501;28;20045;-75
2024/02/20 10:02:45;;;;;;;13.55;2.67;;;;;;;;;;5015196;28;20049;-75
2024/02/20 10:05:15;;;;;;;14.35;2.92;;;;;;;;;;5032244;28;20450;-75
2024/02/20 10:07:43;;;;;;;7.18;2.28;;;;;;;;;;5016394;28;20496;-75
2024/02/20 10:10:11;;;;;;;12.57;2.83;;;;;;;;;;5015806;28;20068;-75
2024/02/20 10:12:39;;;;;;;15.77;2.88;;;;;;;;;;5015499;28;20414;-75
2024/02/20 10:15:07;;;;;;;12.15;2.40;;;;;;;;;;5016649;28;20053;-75
2024/02/20 10:17:33;;;;;;;13.13;3.40;;;;;;;;;;5015044;28;20056;-75
2024/02/20 10:20:10;;;;;;;18.10;3.20;;;;;;;;;;5010253;28;20406;-75
2024/02/20 10:22:41;;;;;;;9.63;3.00;;;;;;;;;;5031824;28;20053;-76
2024/02/20 10:25:13;;;;;;;12.05;3.17;;;;;;;;;;5032806;28;20143;-75
2024/02/20 10:27:41;;;;;;;11.80;2.50;;;;;;;;;;5030637;28;20056;-75
2024/02/20 10:30:08;;;;;;;16.58;3.33;;;;;;;;;;5031903;28;20053;-76
2024/02/20 10:32:36;;;;;;;11.82;2.08;;;;;;;;;;5032315;28;20055;-75
2024/02/20 10:35:05;;;;;;;12.00;2.60;;;;;;;;;;5013923;28;20048;-75
2024/02/20 10:37:32;;;;;;;10.90;2.50;;;;;;;;;;5048162;28;20127;-75
2024/02/20 10:40:06;;;;;;;9.95;2.58;;;;;;;;;;5034468;28;20491;-74
2024/02/20 10:42:52;;;;;;;10.63;2.78;;;;;;;;;;5053238;28;20052;-75
2024/02/20 10:45:18;;;;;;;12.13;2.50;;;;;;;;;;5034350;28;20637;-76
2024/02/20 10:47:45;;;;;;;12.40;2.53;;;;;;;;;;5050908;28;20056;-76
2024/02/20 10:50:13;;;;;;;9.88;2.58;;;;;;;;;;5032792;28;20479;-75
2024/02/20 10:52:40;;;;;;;6.20;2.25;;;;;;;;;;5031288;28;20383;-78
2024/02/20 10:55:08;;;;;;;8.25;2.33;;;;;;;;;;5017451;28;20044;-77
2024/02/20 10:57:59;;;;;;;11.27;2.33;;;;;;;;;;5032248;28;20052;-75
2024/02/20 11:00:26;;;;;;;11.70;2.40;;;;;;;;;;5016001;28;20533;-76
2024/02/20 11:02:53;;;;;;;10.82;2.58;;;;;;;;;;5031429;28;20139;-76
2024/02/20 11:05:20;;;;;;;6.43;2.10;;;;;;;;;;5031843;28;20118;-76
2024/02/20 11:07:47;;;;;;;11.43;2.65;;;;;;;;;;5014688;28;20045;-76
2024/02/20 11:10:18;;;;;;;16.23;3.15;;;;;;;;;;5015472;28;20045;-76
2024/02/20 11:12:45;;;;;;;8.25;2.20;;;;;;;;;;5031572;28;20076;-76
2024/02/20 11:15:19;;;;;;;8.48;2.05;;;;;;;;;;5031625;28;20045;-76
2024/02/20 11:17:47;;;;;;;7.93;2.25;;;;;;;;;;5031083;28;20127;-77
2024/02/20 11:20:21;;;;;;;11.52;2.40;;;;;;;;;;5027614;28;20414;-76
2024/02/20 11:22:51;;;;;;;14.93;2.75;;;;;;;;;;5029677;28;20060;-76
2024/02/20 11:25:21;;;;;;;11.13;1.52;;;;;;;;;;5031120;28;20055;-76
2024/02/20 11:27:48;;;;;;;10.73;2.35;;;;;;;;;;5050059;28;20068;-76
2024/02/20 11:30:25;;;;;;;8.73;2.85;;;;;;;;;;5049210;28;20053;-76
2024/02/20 11:32:53;;;;;;;11.23;3.17;;;;;;;;;;5046660;28;20053;-76
2024/02/20 11:35:27;;;;;;;7.95;1.80;;;;;;;;;;5031408;28;20136;-76
2024/02/20 11:37:55;;;;;;;7.65;2.58;;;;;;;;;;5033708;28;20578;-76
2024/02/20 11:40:22;;;;;;;8.75;2.28;;;;;;;;;;5011011;28;20076;-76
2024/02/20 11:42:49;;;;;;;15.13;3.08;;;;;;;;;;5047990;28;20060;-76
2024/02/20 11:45:24;;;;;;;8.35;2.70;;;;;;;;;;5030300;28;20049;-76
2024/02/20 11:48:04;;;;;;;6.80;1.80;;;;;;;;;;5015668;28;20122;-76
2024/02/20 11:50:35;;;;;;;9.00;3.03;;;;;;;;;;5031306;28;20064;-77
2024/02/20 11:53:03;;;;;;;7.40;2.13;;;;;;;;;;5015006;28;20477;-75
2024/02/20 11:55:32;;;;;;;7.68;1.60;;;;;;;;;;5024245;28;20049;-74
2024/02/20 11:57:59;;;;;;;7.95;1.25;;;;;;;;;;5029109;28;20506;-73
2024/02/20 12:00:27;;;;;;;11.52;2.72;;;;;;;;;;5030287;28;20087;-75
2024/02/20 12:02:54;;;;;;;8.43;1.38;;;;;;;;;;5014190;28;20057;-74
2024/02/20 12:05:24;;;;;;;7.82;2.03;;;;;;;;;;5030706;28;20055;-74
2024/02/20 12:07:52;;;;;;;7.35;1.75;;;;;;;;;;5048560;28;20064;-76
2024/02/20 12:10:19;;;;;;;7.93;1.63;;;;;;;;;;5033683;28;20562;-76
2024/02/20 12:12:46;;;;;;;7.97;3.00;;;;;;;;;;5033549;28;20080;-76
2024/02/20 12:15:14;;;;;;;8.25;1.63;;;;;;;;;;5028524;28;20540;-75
2024/02/20 12:17:41;;;;;;;5.55;1.35;;;;;;;;;;5026520;28;20053;-75
2024/02/20 12:20:09;;;;;;;6.80;1.73;;;;;;;;;;5007609;28;20079;-77
2024/02/20 12:22:38;;;;;;;7.07;1.75;;;;;;;;;;5034545;28;20068;-78
2024/02/20 12:25:19;;;;;;;7.15;1.73;;;;;;;;;;5034292;28;20424;-78
2024/02/20 12:27:47;;;;;;;12.45;1.95;;;;;;;;;;5031483;28;20156;-77
2024/02/20 12:30:15;;;;;;;9.05;1.52;;;;;;;;;;5033931;28;20056;-77
2024/02/20 12:32:42;;;;;;;7.10;1.80;;;;;;;;;;5034364;28;20052;-77
2024/02/20 12:35:09;;;;;;;8.13;1.40;;;;;;;;;;5018101;28;20049;-77
2024/02/20 12:37:36;;;;;;;8.23;2.15;;;;;;;;;;5015292;28;20555;-78
2024/02/20 12:40:06;;;;;;;11.10;2.03;;;;;;;;;;5052494;28;20454;-76
2024/02/20 12:42:33;;;;;;;10.15;2.15;;;;;;;;;;5018419;28;20053;-77
2024/02/20 12:44:59;;;;;;;9.85;2.50;;;;;;;;;;5028956;28;20053;-77
2024/02/20 12:47:26;;;;;;;7.00;1.35;;;;;;;;;;5033854;28;20457;-77
2024/02/20 12:49:53;;;;;;;8.57;1.88;;;;;;;;;;5011873;28;20042;-77
2024/02/20 12:52:22;;;;;;;9.23;2.00;;;;;;;;;;5034489;28;20045;-77
2024/02/20 12:54:49;;;;;;;5.43;1.98;;;;;;;;;;5052201;28;20045;-78
2024/02/20 12:57:15;;;;;;;9.38;1.83;;;;;;;;;;5032858;28;20033;-77
2024/02/20 12:59:42;;;;;;;6.82;1.92;;;;;;;;;;5034503;28;20045;-77
2024/02/20 13:02:10;;;;;;;6.18;1.65;;;;;;;;;;5051893;28;20044;-77
2024/02/20 13:04:37;;;;;;;8.88;1.95;;;;;;;;;;5030339;28;20111;-77
2024/02/20 13:07:04;;;;;;;7.05;1.77;;;;;;;;;;5034132;28;20062;-77
2024/02/20 13:09:32;;;;;;;9.43;1.75;;;;;;;;;;5034203;28;20045;-77
2024/02/20 13:12:00;;;;;;;7.32;1.98;;;;;;;;;;5017620;28;20048;-77
2024/02/20 13:14:28;;;;;;;5.70;1.80;;;;;;;;;;5014921;28;20045;-77
2024/02/20 13:16:55;;;;;;;10.32;1.77;;;;;;;;;;5032104;28;20056;-77
2024/02/20 13:19:21;;;;;;;6.72;2.30;;;;;;;;;;5010630;28;20053;-77
2024/02/20 13:21:51;;;;;;;7.63;2.10;;;;;;;;;;5018250;28;20075;-78
2024/02/20 13:24:18;;;;;;;8.85;1.77;;;;;;;;;;5016971;28;20044;-77
2024/02/20 13:26:45;;;;;;;6.07;1.38;;;;;;;;;;5033799;28;20053;-77
2024/02/20 13:29:12;;;;;;;9.73;2.15;;;;;;;;;;5032942;28;20426;-77
2024/02/20 13:31:39;;;;;;;6.07;1.70;;;;;;;;;;5016481;28;20049;-77
2024/02/20 13:34:09;;;;;;;9.00;2.15;;;;;;;;;;5017350;28;20076;-77
2024/02/20 13:36:37;;;;;;;7.70;1.98;;;;;;;;;;5033333;28;20094;-78
2024/02/20 13:39:06;;;;;;;8.25;2.40;;;;;;;;;;5033191;28;20049;-78
2024/02/20 13:41:35;;;;;;;11.60;3.63;;;;;;;;;;5017267;28;20049;-79
2024/02/20 13:44:08;;;;;;;7.45;2.67;;;;;;;;;;5018483;28;20052;-78
2024/02/20 13:46:35;;;;;;;3.90;2.00;;;;;;;;;;5047063;28;20048;-78
2024/02/20 13:49:02;;;;;;;4.88;1.60;;;;;;;;;;5054797;28;20049;-78
2024/02/20 13:51:30;;;;;;;9.52;2.00;;;;;;;;;;5030598;28;20049;-78
2024/02/20 13:53:58;;;;;;;6.95;1.92;;;;;;;;;;5033219;28;20136;-77
2024/02/20 13:56:25;;;;;;;7.70;2.17;;;;;;;;;;5027638;28;20499;-77
2024/02/20 13:58:54;;;;;;;11.07;2.05;;;;;;;;;;5029054;28;20275;-77
2024/02/20 14:01:21;;;;;;;4.75;1.98;;;;;;;;;;5033150;28;20126;-77
2024/02/20 14:03:48;;;;;;;9.73;2.50;;;;;;;;;;5012827;28;20072;-77
2024/02/20 14:06:14;;;;;;;6.18;1.60;;;;;;;;;;5032989;28;20055;-78
2024/02/20 14:08:45;;;;;;;7.15;1.67;;;;;;;;;;5032061;28;20060;-77
2024/02/20 14:11:17;;;;;;;6.57;2.15;;;;;;;;;;5032628;28;20056;-77
2024/02/20 14:13:48;;;;;;;6.47;1.80;;;;;;;;;;5049188;28;20430;-77
2024/02/20 14:16:15;;;;;;;7.40;2.30;;;;;;;;;;5016006;28;20052;-77
2024/02/20 14:18:42;;;;;;;8.90;2.22;;;;;;;;;;5014800;28;20098;-76
2024/02/20 14:21:12;;;;;;;6.72;2.05;;;;;;;;;;5011340;28;20494;-77
2024/02/20 14:23:39;;;;;;;6.80;2.08;;;;;;;;;;5045989;28;20499;-77
2024/02/20 14:26:06;;;;;;;5.68;1.90;;;;;;;;;;5031873;28;20065;-77
2024/02/20 14:28:33;;;;;;;5.25;2.25;;;;;;;;;;5032661;28;20064;-76
2024/02/20 14:30:59;;;;;;;5.10;1.73;;;;;;;;;;5032226;28;20517;-77
2024/02/20 14:33:28;;;;;;;7.28;2.30;;;;;;;;;;5050884;28;20106;-77
2024/02/20 14:35:56;;;;;;;7.40;1.52;;;;;;;;;;5010294;28;20041;-77
2024/02/20 14:38:22;;;;;;;7.03;2.00;;;;;;;;;;5031634;28;20513;-77
2024/02/20 14:40:51;;;;;;;7.47;1.90;;;;;;;;;;5030053;28;20045;-77